Time;durP1;ratioP1;P1;durP2;ratioP2;P2;SDS_P1;SDS_P2;PMS_P1;PMS_P2;Temp;Humidity;BMP_temperature;BMP_pressure;BME280_temperature;BME280_humidity;BME280_pressure;Samples;Min_cycle;Max_cycle;Signal;HPM_P1;HPM_P2
2023/12/02 00:01:31;;;;;;;11.00;6.85;;;11.40;99.90;;;;;;5016649;28;20421;-89
2023/12/02 00:03:57;;;;;;;10.95;7.63;;;11.40;99.90;;;;;;5016900;28;20113;-91
2023/12/02 00:06:23;;;;;;;9.43;6.97;;;11.40;99.90;;;;;;5016653;28;20048;-90
2023/12/02 00:08:48;;;;;;;12.38;6.97;;;11.40;99.90;;;;;;4999011;28;20033;-90
2023/12/02 00:11:14;;;;;;;9.68;7.03;;;11.40;99.90;;;;;;5016620;28;20022;-90
2023/12/02 00:13:40;;;;;;;10.63;7.50;;;11.40;99.90;;;;;;5008948;28;20042;-90
2023/12/02 00:16:06;;;;;;;8.82;7.18;;;11.40;99.90;;;;;;4979027;28;20018;-92
2023/12/02 00:18:32;;;;;;;9.82;7.55;;;11.40;99.90;;;;;;4979273;28;20022;-91
2023/12/02 00:20:57;;;;;;;7.93;6.68;;;11.40;99.90;;;;;;4997078;28;20053;-91
2023/12/02 00:23:24;;;;;;;9.20;7.10;;;11.40;99.90;;;;;;4996326;28;20390;-91
2023/12/02 00:25:49;;;;;;;8.50;6.65;;;11.40;99.90;;;;;;4998569;28;20033;-90
2023/12/02 00:28:15;;;;;;;10.85;7.20;;;11.40;99.90;;;;;;5016483;28;20041;-89
2023/12/02 00:30:41;;;;;;;9.95;6.93;;;11.40;99.90;;;;;;5016077;28;20022;-90
2023/12/02 00:33:07;;;;;;;9.43;7.20;;;11.40;99.90;;;;;;4984719;28;20041;-87
2023/12/02 00:35:33;;;;;;;9.68;7.15;;;11.40;99.90;;;;;;5002012;28;20014;-87
2023/12/02 00:37:59;;;;;;;9.15;7.20;;;11.40;99.90;;;;;;5004494;28;20169;-86
2023/12/02 00:40:24;;;;;;;9.65;6.90;;;11.40;99.90;;;;;;5001618;28;20027;-86
2023/12/02 00:42:50;;;;;;;8.73;6.80;;;11.40;99.90;;;;;;5008756;28;20029;-86
2023/12/02 00:45:16;;;;;;;9.27;7.78;;;11.40;99.90;;;;;;4998198;28;20505;-87
2023/12/02 00:47:42;;;;;;;10.38;7.63;;;11.40;99.90;;;;;;4994440;28;20387;-86
2023/12/02 00:50:08;;;;;;;11.32;7.22;;;11.40;99.90;;;;;;4995999;28;20026;-87
2023/12/02 00:52:33;;;;;;;8.93;7.13;;;11.40;99.90;;;;;;5006101;28;20044;-86
2023/12/02 00:54:59;;;;;;;13.80;8.32;;;11.40;99.90;;;;;;5006863;28;20033;-86
2023/12/02 00:57:25;;;;;;;8.40;7.07;;;11.40;99.90;;;;;;5000006;28;20023;-87
2023/12/02 00:59:51;;;;;;;11.32;7.72;;;11.40;99.90;;;;;;5014586;28;20034;-87
2023/12/02 01:02:17;;;;;;;11.02;7.43;;;11.40;99.90;;;;;;4997702;28;20189;-87
2023/12/02 01:04:43;;;;;;;11.00;7.47;;;11.40;99.90;;;;;;5015464;28;20080;-87
2023/12/02 01:07:09;;;;;;;9.55;7.20;;;11.40;99.90;;;;;;5015183;28;20101;-87
2023/12/02 01:09:34;;;;;;;19.10;8.35;;;11.40;99.90;;;;;;4980808;28;20421;-87
2023/12/02 01:12:01;;;;;;;10.70;7.25;;;11.40;99.90;;;;;;5014084;28;20026;-87
2023/12/02 01:14:26;;;;;;;9.93;7.53;;;11.40;99.90;;;;;;5002753;28;20026;-87
2023/12/02 01:16:52;;;;;;;9.30;7.38;;;11.40;99.90;;;;;;5011589;28;20140;-87
2023/12/02 01:19:18;;;;;;;8.40;6.95;;;11.40;99.90;;;;;;4997609;28;20026;-86
2023/12/02 01:24:19;;;;;;;9.88;7.35;;;11.40;99.90;;;;;;4752920;26;20383;-88
2023/12/02 01:26:45;;;;;;;8.75;6.65;;;11.40;99.90;;;;;;4996174;28;20037;-87
2023/12/02 01:29:10;;;;;;;8.77;6.68;;;11.40;99.90;;;;;;5014315;28;20041;-87
2023/12/02 01:31:36;;;;;;;10.15;7.05;;;11.40;99.90;;;;;;5013592;28;20026;-87
2023/12/02 01:34:02;;;;;;;9.90;7.25;;;11.40;99.90;;;;;;4990039;28;20057;-88
2023/12/02 01:36:55;;;;;;;10.23;7.15;;;11.40;99.90;;;;;;5014563;28;20030;-88
2023/12/02 01:39:21;;;;;;;11.95;7.72;;;11.40;99.90;;;;;;5009099;28;20041;-89
2023/12/02 01:41:46;;;;;;;9.68;7.13;;;11.40;99.90;;;;;;5001812;28;20100;-87
2023/12/02 01:44:12;;;;;;;8.82;6.90;;;11.40;99.90;;;;;;4997009;28;20033;-88
2023/12/02 01:46:38;;;;;;;10.02;7.35;;;11.40;99.90;;;;;;5014887;28;20080;-88
2023/12/02 01:49:06;;;;;;;8.85;6.88;;;11.50;99.90;;;;;;4987526;28;20037;-88
2023/12/02 01:51:32;;;;;;;11.73;7.35;;;11.50;99.90;;;;;;4994678;28;20033;-88
2023/12/02 01:53:58;;;;;;;10.52;6.93;;;11.50;99.90;;;;;;5005782;28;20103;-88
2023/12/02 01:56:23;;;;;;;10.23;7.28;;;11.50;99.90;;;;;;5006169;28;20101;-88
2023/12/02 01:58:50;;;;;;;9.50;7.40;;;11.60;99.90;;;;;;4977551;28;20027;-88
2023/12/02 02:01:15;;;;;;;13.77;7.82;;;11.60;99.90;;;;;;4994167;28;20084;-87
2023/12/02 02:03:41;;;;;;;13.45;8.05;;;11.60;99.90;;;;;;4996416;28;20022;-90
2023/12/02 02:06:11;;;;;;;9.45;7.20;;;11.60;99.90;;;;;;4981601;28;20026;-90
2023/12/02 02:08:36;;;;;;;13.00;7.43;;;11.60;99.90;;;;;;4979353;28;20053;-91
2023/12/02 02:11:02;;;;;;;12.68;7.93;;;11.60;99.90;;;;;;5003681;28;20053;-91
2023/12/02 02:13:28;;;;;;;10.50;7.43;;;11.60;99.90;;;;;;5006882;28;20032;-91
2023/12/02 02:15:54;;;;;;;12.40;7.15;;;11.60;99.90;;;;;;5012416;28;20097;-91
2023/12/02 02:18:20;;;;;;;9.63;6.78;;;11.60;99.90;;;;;;5005866;28;20018;-91
2023/12/02 02:20:53;;;;;;;10.90;7.05;;;11.60;99.90;;;;;;5015012;28;20094;-91
2023/12/02 02:23:20;;;;;;;9.25;6.45;;;11.60;99.90;;;;;;5014170;28;20049;-91
2023/12/02 02:25:49;;;;;;;8.80;6.97;;;11.60;99.90;;;;;;4996927;28;20037;-91
2023/12/02 02:28:20;;;;;;;7.47;5.88;;;11.60;99.90;;;;;;5014507;28;20026;-92
2023/12/02 02:30:46;;;;;;;15.35;6.88;;;11.60;99.90;;;;;;5015152;28;20539;-92
2023/12/02 02:33:11;;;;;;;10.27;6.65;;;11.60;99.90;;;;;;4997310;28;20164;-95
2023/12/02 02:35:40;;;;;;;9.13;6.07;;;11.60;99.90;;;;;;4998350;28;20386;-94
2023/12/02 02:38:05;;;;;;;8.82;6.53;;;11.60;99.90;;;;;;4998047;28;20025;-87
2023/12/02 02:40:31;;;;;;;8.40;6.40;;;11.60;99.90;;;;;;4988517;28;20474;-86
2023/12/02 02:42:57;;;;;;;11.68;6.95;;;11.60;99.90;;;;;;4984417;28;20033;-86
2023/12/02 02:45:23;;;;;;;9.02;6.65;;;11.60;99.90;;;;;;5013643;28;20133;-85
2023/12/02 02:47:49;;;;;;;9.18;6.38;;;11.60;99.90;;;;;;5011736;28;20038;-85
2023/12/02 02:50:16;;;;;;;10.27;6.57;;;11.60;99.90;;;;;;4981613;28;20432;-85
2023/12/02 02:52:42;;;;;;;9.40;6.82;;;11.60;99.90;;;;;;4997761;28;20030;-85
2023/12/02 02:55:08;;;;;;;10.32;6.75;;;11.60;99.90;;;;;;5013289;28;20026;-85
2023/12/02 02:57:34;;;;;;;8.70;6.10;;;11.60;99.90;;;;;;4995488;28;20116;-85
2023/12/02 03:00:00;;;;;;;8.95;6.53;;;11.60;99.90;;;;;;5005021;28;20067;-86
2023/12/02 03:02:27;;;;;;;8.30;6.57;;;11.60;99.90;;;;;;5013445;28;20456;-86
2023/12/02 03:04:52;;;;;;;8.85;6.43;;;11.60;99.90;;;;;;5013572;28;20401;-85
2023/12/02 03:07:18;;;;;;;9.38;6.65;;;11.60;99.90;;;;;;5011151;28;20022;-85
2023/12/02 03:09:44;;;;;;;10.40;6.63;;;11.60;99.90;;;;;;4994098;28;20058;-86
2023/12/02 03:12:10;;;;;;;10.32;6.63;;;11.60;99.90;;;;;;4994058;28;20073;-86
2023/12/02 03:14:38;;;;;;;10.35;6.43;;;11.60;99.90;;;;;;4993663;28;20154;-86
2023/12/02 03:17:04;;;;;;;11.55;6.97;;;11.60;99.90;;;;;;4976552;28;20022;-87
2023/12/02 03:19:29;;;;;;;11.48;7.10;;;11.60;99.90;;;;;;5004258;28;20507;-87
2023/12/02 03:21:55;;;;;;;11.98;6.70;;;11.60;99.90;;;;;;4988911;28;20027;-87
2023/12/02 03:24:21;;;;;;;10.20;7.20;;;11.60;99.90;;;;;;4993671;28;20108;-88
2023/12/02 03:26:47;;;;;;;8.32;6.53;;;11.60;99.90;;;;;;4993745;28;20030;-87
2023/12/02 03:29:12;;;;;;;8.95;6.78;;;11.60;99.90;;;;;;4976238;28;20121;-87
2023/12/02 03:31:38;;;;;;;10.73;6.68;;;11.60;99.90;;;;;;4993889;28;20022;-87
2023/12/02 03:34:04;;;;;;;9.88;6.75;;;11.70;99.90;;;;;;4976343;28;20034;-87
2023/12/02 03:36:30;;;;;;;11.63;6.55;;;11.60;99.90;;;;;;4993711;28;20030;-85
2023/12/02 03:38:57;;;;;;;9.57;6.55;;;11.60;99.90;;;;;;4993758;28;20061;-87
2023/12/02 03:41:22;;;;;;;16.80;7.03;;;11.70;99.90;;;;;;4993856;28;20544;-87
2023/12/02 03:43:48;;;;;;;13.13;7.28;;;11.70;99.90;;;;;;4993808;28;20034;-87
2023/12/02 03:46:14;;;;;;;12.07;7.22;;;11.70;99.90;;;;;;4976370;28;20058;-87
2023/12/02 03:48:40;;;;;;;13.90;7.13;;;11.70;99.90;;;;;;4993762;28;20037;-86
2023/12/02 03:51:06;;;;;;;12.88;6.88;;;11.70;99.90;;;;;;4992559;28;20038;-86
2023/12/02 03:53:34;;;;;;;16.23;7.53;;;11.70;99.90;;;;;;4993146;28;20089;-86
2023/12/02 03:56:00;;;;;;;11.57;6.40;;;11.70;99.90;;;;;;4993281;28;20145;-86
2023/12/02 03:58:27;;;;;;;10.98;6.63;;;11.70;99.90;;;;;;4976066;28;20105;-86
2023/12/02 04:00:53;;;;;;;9.73;6.53;;;11.70;99.90;;;;;;4993306;28;20073;-86
2023/12/02 04:03:19;;;;;;;10.77;6.45;;;11.60;99.90;;;;;;4993596;28;20030;-86
2023/12/02 04:05:45;;;;;;;10.40;6.50;;;11.60;99.90;;;;;;4976029;28;20386;-86
2023/12/02 04:08:11;;;;;;;10.63;6.00;;;11.60;99.90;;;;;;4993461;28;20126;-86
2023/12/02 04:10:36;;;;;;;11.82;7.30;;;11.60;99.90;;;;;;4993568;28;20061;-86
2023/12/02 04:13:03;;;;;;;12.63;6.38;;;11.60;99.90;;;;;;4977417;28;20031;-86
2023/12/02 04:15:29;;;;;;;9.98;6.20;;;11.60;99.90;;;;;;4996788;28;20022;-86
2023/12/02 04:17:54;;;;;;;10.65;6.30;;;11.60;99.90;;;;;;4979248;28;20026;-86
2023/12/02 04:20:21;;;;;;;9.40;6.47;;;11.50;99.90;;;;;;4996560;28;20034;-85
2023/12/02 04:22:47;;;;;;;8.43;6.35;;;11.50;99.90;;;;;;4978908;28;20506;-86
2023/12/02 04:25:14;;;;;;;11.00;6.72;;;11.50;99.90;;;;;;4979360;28;20113;-86
2023/12/02 04:27:41;;;;;;;10.95;5.88;;;11.60;99.90;;;;;;4977203;28;20529;-86
2023/12/02 04:30:08;;;;;;;10.85;6.47;;;11.50;99.90;;;;;;4977215;28;20046;-85
2023/12/02 04:32:34;;;;;;;15.43;6.63;;;11.50;99.90;;;;;;4959546;28;20034;-85
2023/12/02 04:35:00;;;;;;;10.60;6.13;;;11.60;99.90;;;;;;4977336;28;20475;-87
2023/12/02 04:37:26;;;;;;;10.32;5.68;;;11.50;99.90;;;;;;4976932;28;20109;-85
2023/12/02 04:39:55;;;;;;;10.50;5.97;;;11.50;99.90;;;;;;4959716;28;20109;-85
2023/12/02 04:42:20;;;;;;;13.73;6.85;;;11.50;99.90;;;;;;4977477;28;20050;-86
2023/12/02 04:44:46;;;;;;;10.23;6.60;;;11.50;99.90;;;;;;4960318;28;20019;-86
2023/12/02 04:47:12;;;;;;;15.18;6.93;;;11.50;99.90;;;;;;4979580;28;20027;-85
2023/12/02 04:49:37;;;;;;;14.27;7.20;;;11.50;99.90;;;;;;4996018;28;20037;-85
2023/12/02 04:52:04;;;;;;;10.25;6.95;;;11.50;99.90;;;;;;4995428;28;20057;-85
2023/12/02 04:54:30;;;;;;;11.70;6.78;;;11.50;99.90;;;;;;4996094;28;20110;-85
2023/12/02 04:56:56;;;;;;;13.35;6.03;;;11.50;99.90;;;;;;4996128;28;20445;-84
2023/12/02 04:59:22;;;;;;;10.60;6.32;;;11.50;99.90;;;;;;4994932;28;20030;-85
2023/12/02 05:01:47;;;;;;;10.38;6.10;;;11.50;99.90;;;;;;4989054;28;20027;-84
2023/12/02 05:04:13;;;;;;;10.05;6.03;;;11.40;99.90;;;;;;4972170;28;20114;-85
2023/12/02 05:06:39;;;;;;;8.77;6.15;;;11.40;99.90;;;;;;4979805;28;20022;-85
2023/12/02 05:09:08;;;;;;;12.85;6.03;;;11.40;99.90;;;;;;4976475;28;20437;-84
2023/12/02 05:11:34;;;;;;;14.45;6.63;;;11.40;99.90;;;;;;4991164;28;20026;-85
2023/12/02 05:14:00;;;;;;;13.38;6.63;;;11.40;99.90;;;;;;4993791;28;20038;-86
2023/12/02 05:16:25;;;;;;;13.13;6.97;;;11.40;99.90;;;;;;4978049;28;20157;-87
2023/12/02 05:18:51;;;;;;;16.83;6.25;;;11.40;99.90;;;;;;4990060;28;20026;-86
2023/12/02 05:21:18;;;;;;;13.25;6.50;;;11.40;99.90;;;;;;4973447;28;20053;-87
2023/12/02 05:23:44;;;;;;;12.40;6.95;;;11.40;99.90;;;;;;5008731;28;20057;-87
2023/12/02 05:26:10;;;;;;;12.60;6.95;;;11.40;99.90;;;;;;4989581;28;20034;-85
2023/12/02 05:28:38;;;;;;;14.48;6.10;;;11.40;99.90;;;;;;4985602;28;20041;-87
2023/12/02 05:31:04;;;;;;;19.00;6.90;;;11.40;99.90;;;;;;5009895;28;20030;-86
2023/12/02 05:33:30;;;;;;;11.68;6.28;;;11.40;99.90;;;;;;5014674;28;20424;-85
2023/12/02 05:35:55;;;;;;;12.80;6.35;;;11.40;99.90;;;;;;5014747;28;20558;-85
2023/12/02 05:38:21;;;;;;;12.38;6.32;;;11.40;99.90;;;;;;4997259;28;20061;-86
2023/12/02 05:40:47;;;;;;;11.07;6.72;;;11.40;99.90;;;;;;4985290;28;20050;-86
2023/12/02 05:43:13;;;;;;;12.00;6.55;;;11.50;99.90;;;;;;4996468;28;20486;-85
2023/12/02 05:45:39;;;;;;;11.05;6.40;;;11.40;99.90;;;;;;4997495;28;20033;-85
2023/12/02 05:48:05;;;;;;;13.25;6.88;;;11.50;99.90;;;;;;4996772;28;20030;-86
2023/12/02 05:50:31;;;;;;;12.10;6.80;;;11.50;99.90;;;;;;4996874;28;20068;-85
2023/12/02 05:52:57;;;;;;;12.70;6.88;;;11.50;99.90;;;;;;5013507;28;20041;-85
2023/12/02 05:55:23;;;;;;;16.80;7.30;;;11.50;99.90;;;;;;4995440;28;20017;-84
2023/12/02 05:57:48;;;;;;;14.77;6.35;;;11.50;99.90;;;;;;4986527;28;20165;-84
2023/12/02 06:00:18;;;;;;;13.93;6.35;;;11.50;99.90;;;;;;4990610;28;20022;-84
2023/12/02 06:02:44;;;;;;;15.15;7.15;;;11.50;99.90;;;;;;4996883;28;20402;-93
2023/12/02 06:05:09;;;;;;;12.13;6.40;;;11.50;99.90;;;;;;4997367;28;20037;-93
2023/12/02 06:07:35;;;;;;;17.23;6.63;;;11.50;99.90;;;;;;4997346;28;20022;-93
2023/12/02 06:10:01;;;;;;;10.82;5.80;;;11.50;99.90;;;;;;5015188;28;20018;-92
2023/12/02 06:12:27;;;;;;;16.92;7.60;;;11.60;99.90;;;;;;4997221;28;20080;-91
2023/12/02 06:14:52;;;;;;;14.98;7.30;;;11.50;99.90;;;;;;5014660;28;20022;-91
2023/12/02 06:17:18;;;;;;;16.33;6.40;;;11.60;99.90;;;;;;4979457;28;20030;-91
2023/12/02 06:19:44;;;;;;;10.85;6.03;;;11.60;99.90;;;;;;4977451;28;20026;-92
2023/12/02 06:22:10;;;;;;;12.02;6.28;;;11.60;99.90;;;;;;4977285;28;20061;-92
2023/12/02 06:24:36;;;;;;;16.20;6.95;;;11.60;99.90;;;;;;4977654;28;20105;-92
2023/12/02 06:27:02;;;;;;;16.92;7.20;;;11.60;99.90;;;;;;4995121;28;20057;-91
2023/12/02 06:29:28;;;;;;;12.27;6.85;;;11.70;99.90;;;;;;4977457;28;20050;-91
2023/12/02 06:31:54;;;;;;;14.30;6.88;;;11.70;99.90;;;;;;4986890;28;20125;-83
2023/12/02 06:34:20;;;;;;;12.20;6.53;;;11.70;99.90;;;;;;5014207;28;20080;-91
2023/12/02 06:36:45;;;;;;;15.68;6.93;;;11.70;99.90;;;;;;4997819;28;20109;-91
2023/12/02 06:39:15;;;;;;;12.85;6.57;;;11.70;99.90;;;;;;4999466;28;20018;-91
2023/12/02 06:41:41;;;;;;;9.10;5.93;;;11.70;99.90;;;;;;5014149;28;20108;-90
2023/12/02 06:44:08;;;;;;;12.18;5.82;;;11.70;99.90;;;;;;4996339;28;20025;-91
2023/12/02 06:46:34;;;;;;;15.25;6.65;;;11.70;99.90;;;;;;4996381;28;20032;-91
2023/12/02 06:49:00;;;;;;;11.00;5.97;;;11.80;99.90;;;;;;5014007;28;20482;-89
2023/12/02 06:51:28;;;;;;;16.20;7.25;;;11.80;99.90;;;;;;4995924;28;20057;-87
2023/12/02 06:53:58;;;;;;;12.27;5.88;;;11.80;99.90;;;;;;4996592;28;20021;-90
2023/12/02 06:56:25;;;;;;;13.95;6.45;;;11.80;99.90;;;;;;4996484;28;20026;-87
2023/12/02 06:58:51;;;;;;;14.20;6.75;;;11.80;99.90;;;;;;5014488;28;20115;-90
2023/12/02 07:01:31;;;;;;;11.07;5.90;;;11.80;99.90;;;;;;5012435;28;20576;-91
2023/12/02 07:03:58;;;;;;;15.38;6.25;;;11.80;99.90;;;;;;4996056;28;20033;-92
2023/12/02 07:06:25;;;;;;;13.52;5.93;;;11.80;99.90;;;;;;4996319;28;20501;-92
2023/12/02 07:08:51;;;;;;;14.55;6.75;;;11.90;99.90;;;;;;4996216;28;20034;-93
2023/12/02 07:11:18;;;;;;;16.08;7.45;;;11.80;99.90;;;;;;4995849;28;20034;-88
2023/12/02 07:13:43;;;;;;;13.15;5.97;;;11.90;99.90;;;;;;5013439;28;20049;-90
2023/12/02 07:16:10;;;;;;;13.60;7.20;;;11.90;99.90;;;;;;4995304;28;20549;-89
2023/12/02 07:18:36;;;;;;;15.02;6.60;;;11.90;99.90;;;;;;4995262;28;20085;-92
2023/12/02 07:21:02;;;;;;;12.27;6.60;;;11.90;99.90;;;;;;4996247;28;20045;-93
2023/12/02 07:23:28;;;;;;;13.60;6.50;;;12.00;99.90;;;;;;5014464;28;20084;-92
2023/12/02 07:25:55;;;;;;;14.18;5.90;;;12.00;99.90;;;;;;4996136;28;20041;-90
2023/12/02 07:28:21;;;;;;;8.98;3.38;;;12.00;99.90;;;;;;4995846;28;20057;-93
2023/12/02 07:30:49;;;;;;;15.05;5.57;;;12.20;99.90;;;;;;4996326;28;20026;-91
2023/12/02 07:33:19;;;;;;;15.60;6.40;;;12.30;99.90;;;;;;4996201;28;20070;-92
2023/12/02 07:35:44;;;;;;;12.00;5.93;;;12.40;99.90;;;;;;4995948;28;20117;-92
2023/12/02 07:38:10;;;;;;;16.02;6.15;;;12.40;99.90;;;;;;4995615;28;20129;-92
2023/12/02 07:40:36;;;;;;;15.02;6.32;;;12.40;99.90;;;;;;5001525;28;20035;-93
2023/12/02 07:43:02;;;;;;;20.42;6.43;;;12.40;99.90;;;;;;4995617;28;20462;-89
2023/12/02 07:45:28;;;;;;;18.67;6.32;;;12.40;99.90;;;;;;5013093;28;20038;-87
2023/12/02 07:48:00;;;;;;;17.20;5.88;;;12.40;99.90;;;;;;5010524;28;20126;-87
2023/12/02 07:50:26;;;;;;;19.63;6.38;;;12.40;99.90;;;;;;4995085;28;20437;-88
2023/12/02 07:52:52;;;;;;;15.13;5.25;;;12.40;99.90;;;;;;5016893;28;20026;-88
2023/12/02 07:55:17;;;;;;;14.95;6.63;;;12.40;99.90;;;;;;4998789;28;20050;-87
2023/12/02 07:57:43;;;;;;;17.65;6.28;;;12.40;99.90;;;;;;5016749;28;20026;-88
2023/12/02 08:00:09;;;;;;;19.80;6.47;;;12.40;99.90;;;;;;5008611;28;20030;-88
2023/12/02 08:02:35;;;;;;;15.88;6.13;;;12.50;99.90;;;;;;4998049;28;20500;-88
2023/12/02 08:05:01;;;;;;;19.60;6.35;;;12.50;99.90;;;;;;5016794;28;20022;-88
2023/12/02 08:07:26;;;;;;;17.23;5.97;;;12.50;99.90;;;;;;4998773;28;20287;-88
2023/12/02 08:09:52;;;;;;;11.10;5.30;;;12.50;99.90;;;;;;5016362;28;20026;-88
2023/12/02 08:12:18;;;;;;;15.93;5.55;;;12.50;99.90;;;;;;5028164;28;20101;-95
2023/12/02 08:14:44;;;;;;;13.40;5.90;;;12.60;99.90;;;;;;5019092;28;20025;-92
2023/12/02 08:17:10;;;;;;;12.20;5.55;;;12.70;99.90;;;;;;5007249;28;20082;-92
2023/12/02 08:19:35;;;;;;;16.13;6.88;;;12.70;99.90;;;;;;5016924;28;20022;-91
2023/12/02 08:22:02;;;;;;;16.90;7.47;;;12.70;99.90;;;;;;4998926;28;20072;-94
2023/12/02 08:24:32;;;;;;;16.40;8.20;;;12.70;99.90;;;;;;5016130;28;20042;-91
2023/12/02 08:26:58;;;;;;;22.27;7.82;;;12.70;99.90;;;;;;5016078;28;20923;-93
2023/12/02 08:29:24;;;;;;;13.20;5.80;;;12.80;99.90;;;;;;4998361;28;20112;-92
2023/12/02 08:31:50;;;;;;;15.63;6.85;;;12.80;99.90;;;;;;4998173;28;20076;-87
2023/12/02 08:34:16;;;;;;;17.48;6.75;;;12.90;99.90;;;;;;5015541;28;20065;-88
2023/12/02 08:36:42;;;;;;;16.17;6.57;;;12.90;99.90;;;;;;4998389;28;20072;-89
2023/12/02 08:39:07;;;;;;;13.63;6.20;;;13.10;99.90;;;;;;4996274;28;20386;-87
2023/12/02 08:41:33;;;;;;;12.18;5.97;;;13.20;99.90;;;;;;5010307;28;20104;-87
2023/12/02 08:43:59;;;;;;;16.77;6.25;;;13.30;99.90;;;;;;5015217;28;20030;-87
2023/12/02 08:46:25;;;;;;;18.17;6.57;;;13.30;99.90;;;;;;5014848;28;20037;-87
2023/12/02 08:48:51;;;;;;;15.57;7.22;;;13.30;99.90;;;;;;5016183;28;20087;-87
2023/12/02 08:51:17;;;;;;;17.42;6.70;;;13.30;99.90;;;;;;5015574;28;20030;-87
2023/12/02 08:53:43;;;;;;;15.07;6.05;;;13.30;99.90;;;;;;4997811;28;20033;-87
2023/12/02 08:56:09;;;;;;;17.85;6.88;;;13.30;99.90;;;;;;4998045;28;20022;-87
2023/12/02 08:58:35;;;;;;;14.40;6.38;;;13.30;99.90;;;;;;5012761;28;20414;-87
2023/12/02 09:01:00;;;;;;;10.20;5.78;;;13.30;99.90;;;;;;5013574;28;20466;-86
2023/12/02 09:03:26;;;;;;;13.50;6.72;;;13.40;99.90;;;;;;5016673;28;20474;-87
2023/12/02 09:05:56;;;;;;;12.05;6.47;;;13.40;99.90;;;;;;5017937;28;20137;-87
2023/12/02 09:08:22;;;;;;;17.10;6.72;;;13.40;99.90;;;;;;5018576;28;20046;-87
2023/12/02 09:10:48;;;;;;;15.55;6.57;;;13.40;99.90;;;;;;5017085;28;20397;-87
2023/12/02 09:13:32;;;;;;;13.52;6.72;;;13.50;99.90;;;;;;4996430;28;20030;-87
2023/12/02 09:15:58;;;;;;;12.82;6.90;;;13.50;99.90;;;;;;4997877;28;20081;-87
2023/12/02 09:18:34;;;;;;;16.15;7.05;;;13.60;99.90;;;;;;4997682;28;20033;-86
2023/12/02 09:21:00;;;;;;;13.60;7.43;;;13.60;99.90;;;;;;4982439;28;20025;-87
2023/12/02 09:23:27;;;;;;;12.23;6.90;;;13.70;99.90;;;;;;4997536;28;20053;-87
2023/12/02 09:25:53;;;;;;;15.38;6.63;;;13.70;99.90;;;;;;4996997;28;20034;-86
2023/12/02 09:28:26;;;;;;;11.20;6.35;;;13.70;99.90;;;;;;5014479;28;20040;-87
2023/12/02 09:30:55;;;;;;;11.82;5.75;;;13.80;99.90;;;;;;5012369;28;20551;-86
2023/12/02 09:33:20;;;;;;;13.38;6.32;;;13.80;99.90;;;;;;5000754;28;20066;-87
2023/12/02 09:35:58;;;;;;;8.55;5.50;;;13.80;99.90;;;;;;5014775;28;20072;-86
2023/12/02 09:38:24;;;;;;;11.70;6.05;;;13.80;99.90;;;;;;5014815;28;20033;-86
2023/12/02 09:40:52;;;;;;;8.13;4.90;;;13.80;99.90;;;;;;5014424;28;20026;-86
2023/12/02 09:43:31;;;;;;;9.75;5.28;;;13.90;99.90;;;;;;5014025;28;20045;-87
2023/12/02 09:46:17;;;;;;;6.45;4.07;;;14.00;99.90;;;;;;5014706;28;20061;-90
2023/12/02 09:49:13;;;;;;;7.10;3.97;;;14.10;99.90;;;;;;4997461;28;20133;-91
2023/12/02 09:52:21;;;;;;;10.20;4.80;;;14.30;99.90;;;;;;5015231;28;20037;-89
2023/12/02 09:55:03;;;;;;;10.52;5.10;;;14.40;99.90;;;;;;4969736;28;20060;-89
2023/12/02 09:57:45;;;;;;;9.43;4.10;;;14.40;99.90;;;;;;5015928;28;20083;-91
2023/12/02 10:00:35;;;;;;;6.90;3.83;;;14.50;99.90;;;;;;5009952;28;20548;-91
2023/12/02 10:03:37;;;;;;;5.68;3.55;;;14.50;99.90;;;;;;5014777;28;20053;-90
2023/12/02 10:06:44;;;;;;;7.70;2.70;;;14.50;99.90;;;;;;5014605;28;20018;-90
2023/12/02 10:09:35;;;;;;;4.45;2.10;;;14.70;99.90;;;;;;4969819;28;20070;-84
2023/12/02 10:12:24;;;;;;;3.10;1.75;;;14.70;99.90;;;;;;4972156;28;20046;-84
2023/12/02 10:15:00;;;;;;;2.80;1.45;;;14.80;99.90;;;;;;5007174;28;20037;-90
2023/12/02 10:17:28;;;;;;;2.47;1.10;;;14.90;99.90;;;;;;5014997;28;20022;-88
2023/12/02 10:20:01;;;;;;;4.57;1.20;;;15.10;99.80;;;;;;5015416;28;20072;-91
2023/12/02 10:22:28;;;;;;;2.40;1.27;;;15.20;99.70;;;;;;5015019;28;20120;-89
2023/12/02 10:25:04;;;;;;;2.90;1.02;;;15.40;99.00;;;;;;5014876;28;20022;-90
2023/12/02 10:27:36;;;;;;;2.17;0.90;;;15.50;98.40;;;;;;5030488;28;20400;-89
2023/12/02 10:30:15;;;;;;;2.92;0.88;;;15.80;98.20;;;;;;5022575;28;20026;-90
2023/12/02 10:33:03;;;;;;;2.38;0.90;;;16.00;98.00;;;;;;5013950;28;20033;-87
2023/12/02 10:35:47;;;;;;;5.07;1.42;;;16.30;97.00;;;;;;5014238;28;20489;-88
2023/12/02 10:38:21;;;;;;;2.58;0.80;;;16.50;95.70;;;;;;5027708;28;20048;-90
2023/12/02 10:40:55;;;;;;;3.20;1.02;;;16.70;95.60;;;;;;5015482;28;20033;-89
2023/12/02 10:43:34;;;;;;;1.85;0.90;;;16.80;95.40;;;;;;5026715;28;20108;-89
2023/12/02 10:46:00;;;;;;;4.90;0.90;;;17.00;94.90;;;;;;5014726;28;20057;-85
2023/12/02 10:48:27;;;;;;;3.50;1.33;;;17.20;93.70;;;;;;4994935;28;20111;-84
2023/12/02 10:50:54;;;;;;;3.22;1.55;;;17.30;92.20;;;;;;5012863;28;20025;-85
2023/12/02 10:53:20;;;;;;;16.50;1.90;;;17.40;89.50;;;;;;5013519;28;20088;-85
2023/12/02 10:55:53;;;;;;;2.90;0.90;;;17.40;88.80;;;;;;5012844;28;20037;-89
2023/12/02 10:58:20;;;;;;;4.80;1.33;;;17.50;90.00;;;;;;5010949;28;20033;-84
2023/12/02 11:00:51;;;;;;;3.05;1.02;;;17.70;89.10;;;;;;5012333;28;20028;-85
2023/12/02 11:03:32;;;;;;;4.88;1.63;;;17.90;89.60;;;;;;5007183;28;20068;-85
2023/12/02 11:06:07;;;;;;;2.97;0.98;;;18.00;84.40;;;;;;5013293;28;20619;-84
2023/12/02 11:08:56;;;;;;;4.70;0.90;;;18.00;85.80;;;;;;4995393;28;20104;-85
2023/12/02 11:11:43;;;;;;;1.63;0.82;;;18.00;87.60;;;;;;5013138;28;20469;-85
2023/12/02 11:14:17;;;;;;;2.58;0.80;;;18.20;88.10;;;;;;5013122;28;20029;-85
2023/12/02 11:17:08;;;;;;;2.97;0.95;;;18.20;85.00;;;;;;5013350;28;20022;-85
2023/12/02 11:20:14;;;;;;;2.30;0.93;;;18.30;84.60;;;;;;4995346;28;20057;-85
2023/12/02 11:23:05;;;;;;;3.70;1.00;;;18.30;84.90;;;;;;4997945;28;20104;-84
2023/12/02 11:25:56;;;;;;;4.72;1.90;;;18.50;83.80;;;;;;4999434;28;20037;-85
2023/12/02 11:28:37;;;;;;;1.92;0.85;;;18.50;81.80;;;;;;5005004;28;20038;-85
2023/12/02 11:31:43;;;;;;;3.80;1.00;;;18.80;83.00;;;;;;5016547;28;20037;-85
2023/12/02 11:34:23;;;;;;;4.80;1.17;;;19.20;83.40;;;;;;5017127;28;20026;-86
2023/12/02 11:37:07;;;;;;;3.53;1.00;;;20.30;82.40;;;;;;5017094;28;20045;-85
2023/12/02 11:39:39;;;;;;;3.58;1.17;;;21.60;78.20;;;;;;5016889;28;20030;-85
2023/12/02 11:42:18;;;;;;;4.13;1.00;;;22.70;72.80;;;;;;4998462;28;20065;-85
2023/12/02 11:45:08;;;;;;;3.67;1.08;;;23.70;71.50;;;;;;4997637;28;20025;-85
2023/12/02 11:47:46;;;;;;;2.13;0.80;;;24.20;63.40;;;;;;5016286;28;20026;-85
2023/12/02 11:50:28;;;;;;;3.63;1.10;;;24.90;65.80;;;;;;5016835;28;20502;-85
2023/12/02 11:53:01;;;;;;;4.13;1.38;;;25.60;62.50;;;;;;5016607;28;20061;-85
2023/12/02 11:55:37;;;;;;;1.92;1.00;;;26.30;64.30;;;;;;4999234;28;20026;-86
2023/12/02 11:58:27;;;;;;;2.50;0.93;;;26.90;61.10;;;;;;5014825;28;20025;-89
2023/12/02 12:01:43;;;;;;;3.45;1.35;;;27.30;59.00;;;;;;5017222;28;20037;-89
2023/12/02 12:04:30;;;;;;;3.38;1.15;;;27.50;56.10;;;;;;5010677;28;20401;-90
2023/12/02 12:07:11;;;;;;;2.60;1.17;;;27.70;58.70;;;;;;5016518;28;20026;-89
2023/12/02 12:09:56;;;;;;;3.13;1.00;;;27.80;56.50;;;;;;5036860;28;20034;-92
2023/12/02 12:12:25;;;;;;;2.60;1.13;;;27.80;55.20;;;;;;5014689;28;20030;-93
2023/12/02 12:14:51;;;;;;;3.53;1.27;;;27.70;56.20;;;;;;4997964;28;20379;-92
2023/12/02 12:17:17;;;;;;;2.42;1.00;;;27.70;54.90;;;;;;5019189;28;20026;-92
2023/12/02 12:19:43;;;;;;;6.60;1.20;;;27.70;55.40;;;;;;5002667;28;20026;-92
2023/12/02 12:22:09;;;;;;;2.13;1.13;;;27.80;53.80;;;;;;5016007;28;20486;-93
2023/12/02 12:24:35;;;;;;;3.88;1.40;;;27.60;53.60;;;;;;4992179;28;20393;-93
2023/12/02 12:27:01;;;;;;;4.90;1.23;;;27.30;53.30;;;;;;5005986;28;20034;-92
2023/12/02 12:29:26;;;;;;;2.90;1.65;;;26.90;51.50;;;;;;5016758;28;20034;-91
2023/12/02 12:31:59;;;;;;;4.70;1.75;;;26.40;53.50;;;;;;5016371;28;20481;-91
2023/12/02 12:34:26;;;;;;;3.15;1.48;;;25.90;53.00;;;;;;4997760;28;20037;-92
2023/12/02 12:36:52;;;;;;;4.72;1.83;;;25.50;53.60;;;;;;4998887;28;20347;-91
2023/12/02 12:39:19;;;;;;;5.13;1.95;;;25.10;54.70;;;;;;5016440;28;20052;-91
2023/12/02 12:41:47;;;;;;;5.35;2.13;;;24.80;54.50;;;;;;5016580;28;20100;-92
2023/12/02 12:44:14;;;;;;;4.53;1.85;;;24.40;56.10;;;;;;4999221;28;20026;-94
2023/12/02 12:46:42;;;;;;;2.63;1.15;;;24.10;57.50;;;;;;4998915;28;20038;-95
2023/12/02 12:49:08;;;;;;;5.35;1.60;;;23.60;57.40;;;;;;5016162;28;20538;-92
2023/12/02 12:51:38;;;;;;;3.20;1.10;;;23.00;58.10;;;;;;5015945;28;20104;-92
2023/12/02 12:54:11;;;;;;;2.13;0.95;;;22.50;59.30;;;;;;4998333;28;20022;-90